Prudhoe Bay — WDI7750 — position and weather

sailwx.info

Track history (hours):
 
Tides and Currents Weather Stations Pressure Air Temp Water Temp Dewpoint Dewpoint Depression Visibility Wind Speed Wind Dir Waves Ship Positions

Prudhoe Bay

Owner: Global Diving, Seattle, WA. More information available from US FCC via Universal Licensing System and Coast Guard Vessel Documentation Center.

Last reported at 2018-Jun-19 22:07 UTC. Time now 2018-Jun-22 18:42 UTC.
Position N 47°35' W 122°25'.

Length 19 m.

Type: Diving. MMSI: 367731850.

Date/timePositionNaut miles runAvg speedWind from/ knotsBaromVisibWave heightAir tempDewpointWater temp
2018-Jun-19 22:07N 47°35' W 122°25'1 7.4
2018-Jun-19 22:00N 47°35' W 122°26'4 7.2
2018-Jun-19 21:30N 47°34' W 122°32'2 0.1
2018-Jun-19 01:25N 47°36' W 122°33'3 6.9
2018-Jun-19 01:00N 47°34' W 122°29'  
2018-Jun-16 01:17N 47°39' W 122°26'2 7.1
2018-Jun-16 00:59N 47°41' W 122°26'4 7.8
2018-Jun-16 00:27N 47°45' W 122°25'4 7.3
2018-Jun-15 23:51N 47°50' W 122°23'2 6.8
2018-Jun-15 23:30N 47°52' W 122°22'40 5.6
2018-Jun-15 16:14N 48°31' W 122°37'1 3.9
2018-Jun-15 16:00N 48°31' W 122°36'0 0.1
2018-Jun-15 15:26N 48°31' W 122°36'0 0.0
2018-Jun-15 14:59N 48°31' W 122°36'0 0.0
2018-Jun-15 14:29N 48°31' W 122°36'0 0.0
2018-Jun-15 13:59N 48°31' W 122°36'0 0.0
2018-Jun-15 13:29N 48°31' W 122°36'0 0.0
2018-Jun-15 12:57N 48°31' W 122°36'0 0.0
2018-Jun-15 12:27N 48°31' W 122°36'0 0.0
2018-Jun-15 11:57N 48°31' W 122°36'0 0.0
2018-Jun-15 11:27N 48°31' W 122°36'0 0.0
2018-Jun-15 10:57N 48°31' W 122°36'0 0.0
2018-Jun-15 10:27N 48°31' W 122°36'0 0.0
2018-Jun-15 09:57N 48°31' W 122°36'0 0.0
2018-Jun-15 09:27N 48°31' W 122°36'0 0.0
2018-Jun-15 08:57N 48°31' W 122°36'0 0.0
2018-Jun-15 08:27N 48°31' W 122°36'0 0.0
2018-Jun-15 07:57N 48°31' W 122°36'0 0.0
2018-Jun-15 07:27N 48°31' W 122°36'0 0.0
2018-Jun-15 06:57N 48°31' W 122°36'0 0.0
2018-Jun-15 06:21N 48°31' W 122°36'0 0.0
2018-Jun-15 06:00N 48°31' W 122°36'7 4.5
2018-Jun-15 04:30N 48°34' W 122°46'3 6.2
2018-Jun-15 03:57N 48°36' W 122°49'3 0.1
2018-Jun-13 21:30N 48°38' W 122°52'4 7.5
2018-Jun-13 21:00N 48°34' W 122°51'42 6.7
2018-Jun-13 14:47N 47°55' W 122°29'3 9.3
2018-Jun-13 14:30N 47°53' W 122°28'4 8.5
2018-Jun-13 14:00N 47°49' W 122°26'4 8.0
2018-Jun-13 13:28N 47°45' W 122°26'4 7.7
2018-Jun-13 13:00N 47°41' W 122°27'3 7.0
2018-Jun-13 12:30N 47°38' W 122°25'  
Track history (hours):
 
Tides and Currents Weather Stations Pressure Air Temp Water Temp Dewpoint Dewpoint Depression Visibility Wind Speed Wind Dir Waves Ship Positions

Prudhoe Bay

Owner: Global Diving, Seattle, WA. More information available from US FCC via Universal Licensing System and Coast Guard Vessel Documentation Center.

Last reported at 2018-Jun-19 22:07 UTC. Time now 2018-Jun-22 18:42 UTC.
Position N 47°35' W 122°25'.

Length 19 m.

Type: Diving. MMSI: 367731850.

Date/timePositionNaut miles runAvg speedWind from/ knotsBaromVisibWave heightAir tempDewpointWater temp
2018-Jun-19 22:07N 47°35' W 122°25'1 7.4
2018-Jun-19 22:00N 47°35' W 122°26'4 7.2
2018-Jun-19 21:30N 47°34' W 122°32'2 0.1
2018-Jun-19 01:25N 47°36' W 122°33'3 6.9
2018-Jun-19 01:00N 47°34' W 122°29'  
2018-Jun-16 01:17N 47°39' W 122°26'2 7.1
2018-Jun-16 00:59N 47°41' W 122°26'4 7.8
2018-Jun-16 00:27N 47°45' W 122°25'4 7.3
2018-Jun-15 23:51N 47°50' W 122°23'2 6.8
2018-Jun-15 23:30N 47°52' W 122°22'40 5.6
2018-Jun-15 16:14N 48°31' W 122°37'1 3.9
2018-Jun-15 16:00N 48°31' W 122°36'0 0.1
2018-Jun-15 15:26N 48°31' W 122°36'0 0.0
2018-Jun-15 14:59N 48°31' W 122°36'0 0.0
2018-Jun-15 14:29N 48°31' W 122°36'0 0.0
2018-Jun-15 13:59N 48°31' W 122°36'0 0.0
2018-Jun-15 13:29N 48°31' W 122°36'0 0.0
2018-Jun-15 12:57N 48°31' W 122°36'0 0.0
2018-Jun-15 12:27N 48°31' W 122°36'0 0.0
2018-Jun-15 11:57N 48°31' W 122°36'0 0.0
2018-Jun-15 11:27N 48°31' W 122°36'0 0.0
2018-Jun-15 10:57N 48°31' W 122°36'0 0.0
2018-Jun-15 10:27N 48°31' W 122°36'0 0.0
2018-Jun-15 09:57N 48°31' W 122°36'0 0.0
2018-Jun-15 09:27N 48°31' W 122°36'0 0.0
2018-Jun-15 08:57N 48°31' W 122°36'0 0.0
2018-Jun-15 08:27N 48°31' W 122°36'0 0.0
2018-Jun-15 07:57N 48°31' W 122°36'0 0.0
2018-Jun-15 07:27N 48°31' W 122°36'0 0.0
2018-Jun-15 06:57N 48°31' W 122°36'0 0.0
2018-Jun-15 06:21N 48°31' W 122°36'0 0.0
2018-Jun-15 06:00N 48°31' W 122°36'7 4.5
2018-Jun-15 04:30N 48°34' W 122°46'3 6.2
2018-Jun-15 03:57N 48°36' W 122°49'3 0.1
2018-Jun-13 21:30N 48°38' W 122°52'4 7.5
2018-Jun-13 21:00N 48°34' W 122°51'42 6.7
2018-Jun-13 14:47N 47°55' W 122°29'3 9.3
2018-Jun-13 14:30N 47°53' W 122°28'4 8.5
2018-Jun-13 14:00N 47°49' W 122°26'4 8.0
2018-Jun-13 13:28N 47°45' W 122°26'4 7.7
2018-Jun-13 13:00N 47°41' W 122°27'3 7.0
2018-Jun-13 12:30N 47°38' W 122°25'  

Dump ship's entire track history